Texas City — WDD4983 — position and weather

sailwx.info

Track history (hours):
 
Tides and Currents Weather Stations Pressure Air Temp Water Temp Dewpoint Dewpoint Depression Visibility Wind Speed Wind Dir Waves Ship Positions

Texas City

Owner: Marathon Petroleum Company LP, Findlay, OH. More information available from US FCC via Universal Licensing System and Coast Guard Vessel Documentation Center.

Last reported at 2017-Sep-18 12:06 UTC. Time now 2017-Sep-25 02:50 UTC.
Position N 29°37' W 090°21'.

Length 224 m; draft 2.9 m.

Type: . MMSI: 367135470.

Date/timePositionNaut miles runAvg speedWind from/ knotsBaromVisibWave heightAir tempDewpointWater temp
2017-Sep-18 12:06N 29°37' W 090°21'3 4.2
2017-Sep-18 11:26N 29°35' W 090°23'2 3.8
2017-Sep-18 11:00N 29°33' W 090°24'2 4.1
2017-Sep-18 10:30N 29°33' W 090°26'2 4.6
2017-Sep-18 10:00N 29°34' W 090°29'2 4.6
2017-Sep-18 09:30N 29°34' W 090°31'2 4.4
2017-Sep-18 09:00N 29°34' W 090°34'2 4.1
2017-Sep-18 08:30N 29°35' W 090°36'2 4.1
2017-Sep-18 08:00N 29°35' W 090°38'2 4.2
2017-Sep-18 07:30N 29°36' W 090°40'2 3.7
2017-Sep-18 07:00N 29°37' W 090°42'2 3.9
2017-Sep-18 06:30N 29°35' W 090°43'2 3.6
2017-Sep-18 06:00N 29°34' W 090°45'1 1.6
2017-Sep-18 05:26N 29°33' W 090°45'0 0.1
2017-Sep-18 04:59N 29°33' W 090°45'0 0.2
2017-Sep-18 04:29N 29°33' W 090°45'0 0.0
2017-Sep-18 03:59N 29°33' W 090°45'0 0.5
2017-Sep-18 03:31N 29°33' W 090°45'2 4.2
2017-Sep-18 03:00N 29°32' W 090°48'3 5.1
2017-Sep-18 02:30N 29°32' W 090°51'7 4.7
2017-Sep-18 01:08N 29°35' W 090°58'1 5.1
2017-Sep-18 01:01N 29°35' W 090°58'57 3.8
2017-Sep-17 10:05N 29°49' W 092°02'0 4.6
2017-Sep-17 10:00N 29°49' W 092°02'2 4.5
2017-Sep-17 09:30N 29°48' W 092°05'2 4.9
2017-Sep-17 09:00N 29°47' W 092°08'2 4.7
2017-Sep-17 08:30N 29°47' W 092°10'2 4.7
2017-Sep-17 08:00N 29°47' W 092°13'3 5.1
2017-Sep-17 07:30N 29°48' W 092°15'3 4.8
2017-Sep-17 06:57N 29°50' W 092°18'43 4.2
2017-Sep-16 20:52N 29°56' W 093°07'2 4.6
2017-Sep-16 20:31N 29°56' W 093°09'2 4.3
2017-Sep-16 20:00N 29°57' W 093°11'2 4.6
2017-Sep-16 19:30N 29°59' W 093°12'2 4.2
2017-Sep-16 19:00N 30°01' W 093°14'2 4.0
2017-Sep-16 18:30N 30°02' W 093°15'2 3.8
2017-Sep-16 18:00N 30°04' W 093°16'2 4.2
2017-Sep-16 17:30N 30°05' W 093°18'1 1.4
2017-Sep-16 16:59N 30°06' W 093°18'0 0.0
2017-Sep-16 16:29N 30°06' W 093°18'0 0.0
2017-Sep-16 15:59N 30°06' W 093°18'0 0.1
2017-Sep-16 15:29N 30°06' W 093°18'1 1.1
2017-Sep-16 14:59N 30°06' W 093°19'2 3.6
2017-Sep-16 14:30N 30°05' W 093°20'2 3.5
2017-Sep-16 14:00N 30°04' W 093°22'2 4.8
2017-Sep-16 13:30N 30°04' W 093°25'2 4.9
2017-Sep-16 13:00N 30°04' W 093°27'2 4.9
2017-Sep-16 12:30N 30°04' W 093°30'2 4.9
2017-Sep-16 12:00N 30°04' W 093°33'3 5.0
2017-Sep-16 11:28N 30°04' W 093°36'2 5.2
2017-Sep-16 11:00N 30°04' W 093°39'  
2017-Sep-10 17:38N 29°29' W 094°51'1 8.8
2017-Sep-10 17:30N 29°30' W 094°52'4 8.4
2017-Sep-10 17:01N 29°33' W 094°55'4 7.4
2017-Sep-10 16:31N 29°36' W 094°57'4 7.2
2017-Sep-10 16:01N 29°39' W 094°58'3 6.7
2017-Sep-10 15:30N 29°42' W 095°01'3 6.2
2017-Sep-10 15:00N 29°44' W 095°03'6 5.0
2017-Sep-10 13:54N 29°44' W 095°10'0 0.0
2017-Sep-10 04:57N 29°44' W 095°10'0 0.0
2017-Sep-10 04:30N 29°44' W 095°10'0 0.0
2017-Sep-10 04:00N 29°44' W 095°10'0 0.0
2017-Sep-10 03:21N 29°44' W 095°10'0 0.0
2017-Sep-10 02:51N 29°44' W 095°10'0 0.0
2017-Sep-10 01:18N 29°44' W 095°10'0 0.0
2017-Sep-10 01:00N 29°44' W 095°10'0 0.0
2017-Sep-10 00:21N 29°44' W 095°10'0 0.0
2017-Sep-09 23:54N 29°44' W 095°10'0 0.0
2017-Sep-09 23:30N 29°44' W 095°10'0 0.0
2017-Sep-09 23:00N 29°44' W 095°10'0 0.0
2017-Sep-09 22:00N 29°44' W 095°10'0 0.0
2017-Sep-09 21:30N 29°44' W 095°10'0 0.0
2017-Sep-09 20:54N 29°44' W 095°10'0 0.0
2017-Sep-09 20:27N 29°44' W 095°10'0 0.0
2017-Sep-09 19:54N 29°44' W 095°10'0 0.0
2017-Sep-09 19:18N 29°44' W 095°10'0 0.0
2017-Sep-09 17:54N 29°44' W 095°10'0 0.0
2017-Sep-09 17:30N 29°44' W 095°10'0 0.0
2017-Sep-09 17:00N 29°44' W 095°10'0 0.0
2017-Sep-09 16:29N 29°44' W 095°10'0 0.0
2017-Sep-09 15:54N 29°44' W 095°10'0 0.1
2017-Sep-09 15:30N 29°44' W 095°10'0 0.7
2017-Sep-09 14:58N 29°44' W 095°09'2 5.3
2017-Sep-09 14:30N 29°44' W 095°07'2 4.6
2017-Sep-09 14:00N 29°45' W 095°04'3 5.4
2017-Sep-09 13:30N 29°44' W 095°02'2 4.9
2017-Sep-09 13:00N 29°42' W 094°60'2 4.7
2017-Sep-09 12:30N 29°40' W 094°58'3 5.6
2017-Sep-09 12:00N 29°37' W 094°57'3 6.0
2017-Sep-09 11:30N 29°35' W 094°56'3 6.1
2017-Sep-09 11:00N 29°32' W 094°54'3 5.7
2017-Sep-09 10:29N 29°30' W 094°52'  
Track history (hours):
 
Tides and Currents Weather Stations Pressure Air Temp Water Temp Dewpoint Dewpoint Depression Visibility Wind Speed Wind Dir Waves Ship Positions

Texas City

Owner: Marathon Petroleum Company LP, Findlay, OH. More information available from US FCC via Universal Licensing System and Coast Guard Vessel Documentation Center.

Last reported at 2017-Sep-18 12:06 UTC. Time now 2017-Sep-25 02:50 UTC.
Position N 29°37' W 090°21'.

Length 224 m; draft 2.9 m.

Type: . MMSI: 367135470.

Date/timePositionNaut miles runAvg speedWind from/ knotsBaromVisibWave heightAir tempDewpointWater temp
2017-Sep-18 12:06N 29°37' W 090°21'3 4.2
2017-Sep-18 11:26N 29°35' W 090°23'2 3.8
2017-Sep-18 11:00N 29°33' W 090°24'2 4.1
2017-Sep-18 10:30N 29°33' W 090°26'2 4.6
2017-Sep-18 10:00N 29°34' W 090°29'2 4.6
2017-Sep-18 09:30N 29°34' W 090°31'2 4.4
2017-Sep-18 09:00N 29°34' W 090°34'2 4.1
2017-Sep-18 08:30N 29°35' W 090°36'2 4.1
2017-Sep-18 08:00N 29°35' W 090°38'2 4.2
2017-Sep-18 07:30N 29°36' W 090°40'2 3.7
2017-Sep-18 07:00N 29°37' W 090°42'2 3.9
2017-Sep-18 06:30N 29°35' W 090°43'2 3.6
2017-Sep-18 06:00N 29°34' W 090°45'1 1.6
2017-Sep-18 05:26N 29°33' W 090°45'0 0.1
2017-Sep-18 04:59N 29°33' W 090°45'0 0.2
2017-Sep-18 04:29N 29°33' W 090°45'0 0.0
2017-Sep-18 03:59N 29°33' W 090°45'0 0.5
2017-Sep-18 03:31N 29°33' W 090°45'2 4.2
2017-Sep-18 03:00N 29°32' W 090°48'3 5.1
2017-Sep-18 02:30N 29°32' W 090°51'7 4.7
2017-Sep-18 01:08N 29°35' W 090°58'1 5.1
2017-Sep-18 01:01N 29°35' W 090°58'57 3.8
2017-Sep-17 10:05N 29°49' W 092°02'0 4.6
2017-Sep-17 10:00N 29°49' W 092°02'2 4.5
2017-Sep-17 09:30N 29°48' W 092°05'2 4.9
2017-Sep-17 09:00N 29°47' W 092°08'2 4.7
2017-Sep-17 08:30N 29°47' W 092°10'2 4.7
2017-Sep-17 08:00N 29°47' W 092°13'3 5.1
2017-Sep-17 07:30N 29°48' W 092°15'3 4.8
2017-Sep-17 06:57N 29°50' W 092°18'43 4.2
2017-Sep-16 20:52N 29°56' W 093°07'2 4.6
2017-Sep-16 20:31N 29°56' W 093°09'2 4.3
2017-Sep-16 20:00N 29°57' W 093°11'2 4.6
2017-Sep-16 19:30N 29°59' W 093°12'2 4.2
2017-Sep-16 19:00N 30°01' W 093°14'2 4.0
2017-Sep-16 18:30N 30°02' W 093°15'2 3.8
2017-Sep-16 18:00N 30°04' W 093°16'2 4.2
2017-Sep-16 17:30N 30°05' W 093°18'1 1.4
2017-Sep-16 16:59N 30°06' W 093°18'0 0.0
2017-Sep-16 16:29N 30°06' W 093°18'0 0.0
2017-Sep-16 15:59N 30°06' W 093°18'0 0.1
2017-Sep-16 15:29N 30°06' W 093°18'1 1.1
2017-Sep-16 14:59N 30°06' W 093°19'2 3.6
2017-Sep-16 14:30N 30°05' W 093°20'2 3.5
2017-Sep-16 14:00N 30°04' W 093°22'2 4.8
2017-Sep-16 13:30N 30°04' W 093°25'2 4.9
2017-Sep-16 13:00N 30°04' W 093°27'2 4.9
2017-Sep-16 12:30N 30°04' W 093°30'2 4.9
2017-Sep-16 12:00N 30°04' W 093°33'3 5.0
2017-Sep-16 11:28N 30°04' W 093°36'2 5.2
2017-Sep-16 11:00N 30°04' W 093°39'  
2017-Sep-10 17:38N 29°29' W 094°51'1 8.8
2017-Sep-10 17:30N 29°30' W 094°52'4 8.4
2017-Sep-10 17:01N 29°33' W 094°55'4 7.4
2017-Sep-10 16:31N 29°36' W 094°57'4 7.2
2017-Sep-10 16:01N 29°39' W 094°58'3 6.7
2017-Sep-10 15:30N 29°42' W 095°01'3 6.2
2017-Sep-10 15:00N 29°44' W 095°03'6 5.0
2017-Sep-10 13:54N 29°44' W 095°10'0 0.0
2017-Sep-10 04:57N 29°44' W 095°10'0 0.0
2017-Sep-10 04:30N 29°44' W 095°10'0 0.0
2017-Sep-10 04:00N 29°44' W 095°10'0 0.0
2017-Sep-10 03:21N 29°44' W 095°10'0 0.0
2017-Sep-10 02:51N 29°44' W 095°10'0 0.0
2017-Sep-10 01:18N 29°44' W 095°10'0 0.0
2017-Sep-10 01:00N 29°44' W 095°10'0 0.0
2017-Sep-10 00:21N 29°44' W 095°10'0 0.0
2017-Sep-09 23:54N 29°44' W 095°10'0 0.0
2017-Sep-09 23:30N 29°44' W 095°10'0 0.0
2017-Sep-09 23:00N 29°44' W 095°10'0 0.0
2017-Sep-09 22:00N 29°44' W 095°10'0 0.0
2017-Sep-09 21:30N 29°44' W 095°10'0 0.0
2017-Sep-09 20:54N 29°44' W 095°10'0 0.0
2017-Sep-09 20:27N 29°44' W 095°10'0 0.0
2017-Sep-09 19:54N 29°44' W 095°10'0 0.0
2017-Sep-09 19:18N 29°44' W 095°10'0 0.0
2017-Sep-09 17:54N 29°44' W 095°10'0 0.0
2017-Sep-09 17:30N 29°44' W 095°10'0 0.0
2017-Sep-09 17:00N 29°44' W 095°10'0 0.0
2017-Sep-09 16:29N 29°44' W 095°10'0 0.0
2017-Sep-09 15:54N 29°44' W 095°10'0 0.1
2017-Sep-09 15:30N 29°44' W 095°10'0 0.7
2017-Sep-09 14:58N 29°44' W 095°09'2 5.3
2017-Sep-09 14:30N 29°44' W 095°07'2 4.6
2017-Sep-09 14:00N 29°45' W 095°04'3 5.4
2017-Sep-09 13:30N 29°44' W 095°02'2 4.9
2017-Sep-09 13:00N 29°42' W 094°60'2 4.7
2017-Sep-09 12:30N 29°40' W 094°58'3 5.6
2017-Sep-09 12:00N 29°37' W 094°57'3 6.0
2017-Sep-09 11:30N 29°35' W 094°56'3 6.1
2017-Sep-09 11:00N 29°32' W 094°54'3 5.7
2017-Sep-09 10:29N 29°30' W 094°52'  

Dump ship's entire track history